Time;durP1;ratioP1;P1;durP2;ratioP2;P2;SDS_P1;SDS_P2;PMS_P1;PMS_P2;Temp;Humidity;BMP_temperature;BMP_pressure;BME280_temperature;BME280_humidity;BME280_pressure;Samples;Min_cycle;Max_cycle;Signal;HPM_P1;HPM_P2
2021/07/16 00:01:09;;;;;;;19.38;14.27;;;27.30;67.90;;;;;;6180822;28;87144;-67
2021/07/16 00:04:10;;;;;;;26.63;14.15;;;27.30;67.50;;;;;;6183161;28;83147;-67
2021/07/16 00:07:10;;;;;;;21.85;13.50;;;27.30;67.20;;;;;;6183152;28;83460;-67
2021/07/16 00:10:11;;;;;;;29.30;14.35;;;27.30;67.50;;;;;;6177365;28;83181;-67
2021/07/16 00:13:12;;;;;;;22.98;13.00;;;27.30;67.40;;;;;;6179277;28;83074;-68
2021/07/16 00:16:12;;;;;;;28.70;15.32;;;27.30;67.30;;;;;;6173141;28;83830;-69
2021/07/16 00:19:13;;;;;;;27.95;14.77;;;27.30;67.20;;;;;;6175143;28;83930;-68
2021/07/16 00:22:13;;;;;;;22.25;14.25;;;27.30;67.40;;;;;;6171388;28;83169;-68
2021/07/16 00:25:14;;;;;;;23.65;14.70;;;27.30;67.30;;;;;;6175111;28;84036;-69
2021/07/16 00:28:14;;;;;;;21.10;14.27;;;27.30;67.60;;;;;;6178468;28;83207;-68
2021/07/16 00:31:15;;;;;;;24.85;14.43;;;27.30;67.60;;;;;;6172693;28;84435;-69
2021/07/16 00:34:15;;;;;;;20.88;14.27;;;27.30;67.70;;;;;;6179470;28;83339;-70
2021/07/16 00:37:15;;;;;;;20.58;16.27;;;27.20;67.40;;;;;;6175822;28;82888;-70
2021/07/16 00:40:16;;;;;;;25.20;17.38;;;27.20;67.30;;;;;;6177153;28;83404;-70
2021/07/16 00:43:16;;;;;;;29.25;16.35;;;27.20;67.20;;;;;;6176303;28;82992;-70
2021/07/16 00:46:17;;;;;;;29.48;17.08;;;27.20;67.10;;;;;;6176745;28;84631;-70
2021/07/16 00:49:18;;;;;;;40.58;18.05;;;27.10;67.00;;;;;;6167959;28;83267;-67
2021/07/16 00:52:18;;;;;;;29.13;17.48;;;27.10;67.60;;;;;;6173122;28;83786;-67
2021/07/16 00:55:18;;;;;;;23.27;16.35;;;27.10;67.40;;;;;;6174302;28;82928;-68
2021/07/16 00:58:19;;;;;;;24.10;15.45;;;27.10;66.90;;;;;;6179744;28;83787;-67
2021/07/16 01:01:19;;;;;;;21.60;15.35;;;27.10;67.10;;;;;;6176944;28;83312;-69
2021/07/16 01:04:20;;;;;;;25.42;16.85;;;27.10;67.20;;;;;;6170519;28;83837;-68
2021/07/16 01:07:20;;;;;;;22.02;15.23;;;27.20;67.20;;;;;;6170310;28;82968;-69
2021/07/16 01:10:21;;;;;;;21.80;15.20;;;27.20;67.20;;;;;;6176546;28;84669;-68
2021/07/16 01:13:21;;;;;;;21.88;14.52;;;27.20;67.30;;;;;;6174835;28;83218;-68
2021/07/16 01:16:22;;;;;;;17.10;14.02;;;27.20;67.20;;;;;;6178619;28;83020;-68
2021/07/16 01:19:23;;;;;;;19.63;14.90;;;27.20;67.30;;;;;;6178652;28;83197;-69
2021/07/16 01:22:23;;;;;;;24.80;15.95;;;27.20;67.10;;;;;;6177377;28;84142;-69
2021/07/16 01:25:24;;;;;;;26.75;16.52;;;27.20;67.30;;;;;;6180181;28;83344;-69
2021/07/16 01:28:24;;;;;;;19.33;16.02;;;27.20;67.70;;;;;;6172063;28;83160;-70
2021/07/16 01:31:25;;;;;;;24.73;15.75;;;27.20;67.60;;;;;;6179478;28;83483;-69
2021/07/16 01:34:25;;;;;;;23.20;14.57;;;27.20;67.60;;;;;;6177243;28;84367;-70
2021/07/16 01:37:26;;;;;;;25.20;16.48;;;27.20;67.50;;;;;;6177110;28;83120;-70
2021/07/16 01:40:26;;;;;;;22.15;15.73;;;27.20;67.50;;;;;;6173418;28;83626;-70
2021/07/16 01:43:27;;;;;;;21.83;15.25;;;27.20;67.40;;;;;;6172700;28;83226;-70
2021/07/16 01:46:27;;;;;;;21.02;14.35;;;27.20;67.20;;;;;;6177747;28;83084;-70
2021/07/16 01:49:28;;;;;;;21.13;15.05;;;27.30;67.10;;;;;;6170422;28;83221;-70
2021/07/16 01:52:28;;;;;;;22.70;15.93;;;27.30;67.10;;;;;;6170618;28;89093;-70
2021/07/16 01:55:29;;;;;;;19.40;15.68;;;27.30;67.10;;;;;;6171702;28;83272;-70
2021/07/16 01:58:29;;;;;;;24.98;15.35;;;27.30;67.00;;;;;;6178766;28;84128;-69
2021/07/16 02:01:30;;;;;;;24.90;16.83;;;27.30;66.90;;;;;;6177918;28;83094;-70
2021/07/16 02:04:30;;;;;;;22.17;15.73;;;27.30;66.90;;;;;;6178604;28;83492;-70
2021/07/16 02:07:30;;;;;;;22.73;15.60;;;27.20;66.90;;;;;;6174038;28;84135;-70
2021/07/16 02:10:31;;;;;;;30.75;14.63;;;27.20;66.50;;;;;;6159671;28;83974;-71
2021/07/16 02:13:31;;;;;;;23.42;14.93;;;27.20;66.50;;;;;;6178245;28;83047;-70
2021/07/16 02:16:32;;;;;;;19.15;14.00;;;27.20;66.20;;;;;;6173538;28;83049;-70
2021/07/16 02:19:33;;;;;;;18.27;12.30;;;27.20;66.50;;;;;;6172195;28;83152;-68
2021/07/16 02:22:34;;;;;;;17.88;12.27;;;27.20;66.30;;;;;;6171731;28;83564;-69
2021/07/16 02:25:34;;;;;;;16.60;11.90;;;27.20;66.30;;;;;;6173711;28;83555;-70
2021/07/16 02:28:35;;;;;;;18.63;12.90;;;27.20;65.90;;;;;;6177925;28;84321;-68
2021/07/16 02:31:35;;;;;;;17.67;11.60;;;27.20;65.70;;;;;;6178017;28;83287;-69
2021/07/16 02:34:36;;;;;;;15.00;10.20;;;27.20;65.70;;;;;;6176977;28;83730;-68
2021/07/16 02:37:36;;;;;;;15.77;10.05;;;27.20;65.40;;;;;;6177664;28;83213;-68
2021/07/16 02:40:37;;;;;;;15.60;10.18;;;27.10;64.90;;;;;;6176483;28;83432;-67
2021/07/16 02:43:38;;;;;;;15.57;10.05;;;27.10;65.00;;;;;;6177612;28;83057;-68
2021/07/16 02:46:39;;;;;;;12.73;9.50;;;27.10;64.70;;;;;;6177565;28;84139;-67
2021/07/16 02:49:39;;;;;;;18.17;10.50;;;27.10;65.00;;;;;;6179981;28;83662;-68
2021/07/16 02:52:40;;;;;;;16.08;10.23;;;27.10;64.90;;;;;;6177391;28;83816;-68
2021/07/16 02:55:40;;;;;;;12.95;9.52;;;27.10;64.60;;;;;;6176278;28;83148;-68
2021/07/16 02:58:41;;;;;;;15.68;9.63;;;27.10;64.90;;;;;;6181679;28;83394;-67
2021/07/16 03:01:41;;;;;;;14.45;10.05;;;27.10;64.90;;;;;;6175989;28;81476;-67
2021/07/16 03:04:42;;;;;;;12.90;8.88;;;27.10;64.70;;;;;;6177502;28;83275;-68
2021/07/16 03:07:42;;;;;;;12.93;9.48;;;27.10;64.80;;;;;;6171790;28;82755;-70
2021/07/16 03:10:43;;;;;;;17.90;8.77;;;27.10;64.40;;;;;;6174363;28;80866;-71
2021/07/16 03:13:43;;;;;;;19.17;8.85;;;27.00;64.00;;;;;;6179290;28;80638;-71
2021/07/16 03:16:44;;;;;;;17.48;9.85;;;27.00;63.80;;;;;;6179632;28;80864;-72
2021/07/16 03:19:44;;;;;;;15.30;9.10;;;26.90;63.60;;;;;;6179805;28;80468;-71
2021/07/16 03:22:45;;;;;;;16.27;10.13;;;26.80;63.80;;;;;;6178819;28;80997;-71
2021/07/16 03:25:45;;;;;;;14.50;8.82;;;26.80;64.00;;;;;;6175615;28;83809;-67
2021/07/16 03:28:46;;;;;;;14.52;9.10;;;26.80;63.80;;;;;;6180006;28;84293;-69
2021/07/16 03:31:46;;;;;;;16.88;9.05;;;26.80;63.70;;;;;;6174170;28;80493;-68
2021/07/16 03:34:47;;;;;;;11.35;8.40;;;26.80;64.00;;;;;;6176138;28;80805;-69
2021/07/16 03:37:47;;;;;;;20.85;12.27;;;26.80;63.90;;;;;;6181429;28;80167;-69
2021/07/16 03:40:53;;;;;;;18.38;9.73;;;26.80;63.50;;;;;;6174088;28;83604;-68
2021/07/16 03:43:54;;;;;;;15.35;9.05;;;26.70;63.60;;;;;;6179145;28;82171;-69
2021/07/16 03:46:54;;;;;;;13.05;8.65;;;26.70;63.40;;;;;;6180626;28;81354;-69
2021/07/16 03:49:55;;;;;;;17.00;7.78;;;26.60;63.30;;;;;;6182285;28;80977;-68
2021/07/16 03:52:55;;;;;;;13.38;7.85;;;26.60;62.80;;;;;;6173323;28;80322;-68
2021/07/16 03:55:56;;;;;;;15.32;7.88;;;26.50;62.80;;;;;;6181520;28;80504;-69
2021/07/16 03:58:56;;;;;;;14.60;7.10;;;26.50;62.70;;;;;;6176781;28;81788;-70
2021/07/16 04:01:57;;;;;;;16.90;7.93;;;26.50;62.80;;;;;;6176235;28;80663;-70
2021/07/16 04:04:57;;;;;;;13.30;8.27;;;26.50;62.80;;;;;;6171540;28;80387;-70
2021/07/16 04:08:05;;;;;;;10.00;7.20;;;26.50;62.80;;;;;;6174828;28;80487;-69
2021/07/16 04:11:05;;;;;;;13.63;7.65;;;26.50;62.90;;;;;;6169398;28;80574;-69
2021/07/16 04:14:06;;;;;;;14.88;7.20;;;26.50;63.00;;;;;;6171710;28;81292;-69
2021/07/16 04:17:06;;;;;;;15.18;7.65;;;26.50;63.00;;;;;;6182886;28;80511;-69
2021/07/16 04:20:07;;;;;;;10.80;7.78;;;26.50;63.10;;;;;;6183989;28;80323;-69
2021/07/16 04:23:07;;;;;;;11.45;7.88;;;26.50;63.20;;;;;;6180485;28;80129;-69
2021/07/16 04:26:08;;;;;;;13.77;7.75;;;26.50;63.30;;;;;;6183261;28;80613;-70
2021/07/16 04:29:08;;;;;;;14.82;7.75;;;26.50;63.40;;;;;;6180670;28;80380;-70
2021/07/16 04:32:09;;;;;;;13.80;7.72;;;26.50;63.40;;;;;;6180465;28;81555;-69
2021/07/16 04:35:09;;;;;;;12.13;7.45;;;26.50;63.30;;;;;;6183234;28;80865;-69
2021/07/16 04:38:10;;;;;;;10.95;7.57;;;26.60;63.40;;;;;;6182200;28;81078;-71
2021/07/16 04:41:10;;;;;;;13.50;8.18;;;26.60;63.70;;;;;;6178609;28;80633;-70
2021/07/16 04:44:10;;;;;;;12.18;8.57;;;26.60;63.60;;;;;;6180134;28;81540;-69
2021/07/16 04:47:11;;;;;;;16.45;9.05;;;26.70;63.90;;;;;;6178674;28;80321;-71
2021/07/16 04:50:12;;;;;;;14.63;9.65;;;26.70;63.80;;;;;;6184328;28;80359;-69
2021/07/16 04:53:14;;;;;;;17.20;10.43;;;26.70;63.90;;;;;;6179924;28;81912;-70
2021/07/16 04:56:14;;;;;;;14.85;9.57;;;26.70;64.00;;;;;;6164149;28;82860;-69
2021/07/16 04:59:15;;;;;;;17.33;9.65;;;26.70;64.00;;;;;;6183329;28;82942;-70
2021/07/16 05:02:15;;;;;;;19.42;10.35;;;26.80;64.20;;;;;;6183277;28;80625;-70
2021/07/16 05:05:16;;;;;;;13.57;9.63;;;26.80;64.40;;;;;;6181119;28;82992;-69
2021/07/16 05:08:16;;;;;;;18.05;10.48;;;26.80;64.60;;;;;;6182450;28;81817;-67
2021/07/16 05:11:17;;;;;;;23.20;11.98;;;26.90;64.60;;;;;;6174457;28;83057;-67
2021/07/16 05:14:17;;;;;;;16.48;10.65;;;26.90;64.60;;;;;;6169834;28;83224;-68
2021/07/16 05:17:18;;;;;;;20.20;11.30;;;26.90;64.80;;;;;;6171642;28;83055;-71
2021/07/16 05:20:18;;;;;;;15.20;10.18;;;26.90;64.30;;;;;;6173595;28;84320;-69
2021/07/16 05:23:19;;;;;;;23.02;11.57;;;27.00;64.80;;;;;;6181433;28;83482;-69
2021/07/16 05:26:19;;;;;;;19.02;11.52;;;27.00;64.70;;;;;;6171854;28;83223;-72
2021/07/16 05:29:20;;;;;;;21.10;12.88;;;27.00;64.80;;;;;;6179470;28;83881;-69
2021/07/16 05:32:20;;;;;;;16.33;11.55;;;27.10;64.90;;;;;;6181046;28;84198;-70
2021/07/16 05:35:21;;;;;;;16.52;11.75;;;27.10;65.00;;;;;;6175668;28;83593;-70
2021/07/16 05:38:22;;;;;;;22.58;13.13;;;27.10;65.00;;;;;;6174593;28;84011;-68
2021/07/16 05:41:23;;;;;;;29.63;14.75;;;27.10;65.00;;;;;;6156779;28;84026;-69
2021/07/16 05:44:24;;;;;;;29.50;14.82;;;27.10;64.80;;;;;;6164144;28;84155;-68
2021/07/16 05:47:26;;;;;;;24.58;14.32;;;27.00;64.60;;;;;;6159193;28;83386;-68
2021/07/16 05:50:26;;;;;;;26.23;13.50;;;27.00;64.30;;;;;;6168452;28;84756;-69
2021/07/16 05:53:27;;;;;;;20.23;13.75;;;26.90;64.30;;;;;;6169734;28;84716;-68
2021/07/16 05:56:27;;;;;;;22.77;13.23;;;26.90;64.40;;;;;;6174487;28;83356;-69
2021/07/16 05:59:28;;;;;;;18.83;11.73;;;27.00;64.30;;;;;;6171434;28;83179;-68
2021/07/16 06:02:28;;;;;;;25.98;16.15;;;26.90;64.10;;;;;;6174246;28;84306;-70
2021/07/16 06:05:29;;;;;;;24.27;14.68;;;26.90;63.90;;;;;;6177758;28;83470;-69
2021/07/16 06:08:29;;;;;;;20.67;13.13;;;26.90;63.80;;;;;;6179136;28;83407;-69
2021/07/16 06:11:31;;;;;;;23.23;12.48;;;26.90;63.70;;;;;;6173701;28;85927;-68
2021/07/16 06:14:31;;;;;;;19.75;12.43;;;26.90;63.90;;;;;;6170410;28;83168;-71
2021/07/16 06:17:32;;;;;;;18.02;11.35;;;26.90;63.80;;;;;;6173331;28;83444;-70
2021/07/16 06:20:34;;;;;;;20.77;12.77;;;26.90;63.90;;;;;;6169761;28;82995;-69
2021/07/16 06:23:34;;;;;;;20.20;12.82;;;27.00;63.90;;;;;;6176881;28;83098;-68
2021/07/16 06:26:35;;;;;;;25.30;13.00;;;26.90;63.80;;;;;;6165041;28;83243;-69
2021/07/16 06:29:36;;;;;;;23.00;14.05;;;26.90;63.70;;;;;;6165311;28;84258;-70
2021/07/16 06:32:36;;;;;;;31.60;16.17;;;27.00;63.90;;;;;;6183897;28;84975;-69
2021/07/16 06:35:37;;;;;;;35.00;16.40;;;26.90;63.70;;;;;;6175547;28;83985;-68
2021/07/16 06:38:38;;;;;;;26.88;15.20;;;27.00;64.10;;;;;;6164332;28;83394;-67
2021/07/16 06:41:38;;;;;;;30.20;14.90;;;27.00;63.60;;;;;;6170243;28;83721;-67
2021/07/16 06:44:38;;;;;;;26.15;14.68;;;27.00;63.80;;;;;;6162384;28;83001;-67
2021/07/16 06:47:39;;;;;;;26.45;14.63;;;27.00;64.20;;;;;;6162042;28;83661;-66
2021/07/16 06:50:39;;;;;;;23.50;13.85;;;27.00;64.40;;;;;;6159830;28;85705;-66
2021/07/16 06:53:40;;;;;;;31.83;16.67;;;27.00;64.30;;;;;;6162970;28;84364;-66
2021/07/16 06:56:40;;;;;;;29.50;16.65;;;27.00;63.70;;;;;;6163858;28;82980;-66
2021/07/16 06:59:41;;;;;;;29.42;15.80;;;27.00;64.10;;;;;;6164704;28;85346;-66
2021/07/16 07:02:42;;;;;;;31.50;15.88;;;27.00;64.20;;;;;;6174891;28;82823;-68
2021/07/16 07:05:42;;;;;;;32.63;15.45;;;27.10;64.10;;;;;;6160531;28;83855;-67
2021/07/16 07:08:42;;;;;;;27.50;14.63;;;27.10;63.70;;;;;;6166418;28;82886;-66
2021/07/16 07:11:43;;;;;;;25.67;14.65;;;27.10;63.50;;;;;;6165389;28;84355;-67
2021/07/16 07:14:43;;;;;;;30.58;15.13;;;27.10;63.50;;;;;;6164509;28;82958;-68
2021/07/16 07:17:44;;;;;;;28.83;14.88;;;27.10;63.80;;;;;;6164715;28;83431;-68
2021/07/16 07:20:45;;;;;;;29.10;16.35;;;27.10;63.70;;;;;;6187136;28;83425;-68
2021/07/16 07:23:45;;;;;;;33.15;17.17;;;27.10;63.60;;;;;;6170865;28;83109;-70
2021/07/16 07:26:46;;;;;;;33.08;16.63;;;27.10;63.60;;;;;;6173936;28;83549;-70
2021/07/16 07:29:46;;;;;;;28.90;15.68;;;27.10;63.90;;;;;;6174613;28;84004;-72
2021/07/16 07:32:47;;;;;;;36.25;17.15;;;27.10;64.20;;;;;;6177077;28;82734;-70
2021/07/16 07:35:47;;;;;;;35.75;18.60;;;27.10;63.80;;;;;;6174103;28;82860;-69
2021/07/16 07:38:48;;;;;;;27.75;18.08;;;27.20;64.20;;;;;;6173716;28;83208;-69
2021/07/16 07:41:48;;;;;;;31.95;17.73;;;27.20;64.30;;;;;;6169191;28;83144;-70
2021/07/16 07:44:49;;;;;;;36.83;20.05;;;27.20;64.50;;;;;;6165010;28;83144;-69
2021/07/16 07:47:49;;;;;;;38.45;20.42;;;27.30;64.50;;;;;;6173117;28;83352;-69
2021/07/16 07:50:50;;;;;;;36.53;19.60;;;27.20;64.50;;;;;;6183097;28;83720;-69
2021/07/16 07:53:50;;;;;;;36.28;20.08;;;27.20;64.50;;;;;;6179613;28;83846;-68
2021/07/16 07:56:51;;;;;;;44.72;21.52;;;27.20;64.60;;;;;;6171608;28;83227;-68
2021/07/16 07:59:51;;;;;;;39.17;20.85;;;27.30;64.90;;;;;;6177096;28;83704;-69
2021/07/16 08:02:52;;;;;;;47.85;22.88;;;27.30;64.90;;;;;;6182836;28;83365;-69
2021/07/16 08:05:52;;;;;;;44.67;22.27;;;27.20;64.90;;;;;;6180910;28;83052;-69
2021/07/16 08:08:53;;;;;;;45.83;21.77;;;27.20;64.90;;;;;;6174303;28;83363;-69
2021/07/16 08:11:53;;;;;;;38.17;21.63;;;27.10;64.80;;;;;;6173795;28;85616;-70
2021/07/16 08:14:54;;;;;;;38.25;20.35;;;27.10;64.80;;;;;;6169386;28;83633;-70
2021/07/16 08:17:54;;;;;;;39.30;22.35;;;27.10;64.80;;;;;;6176281;28;83978;-69
2021/07/16 08:20:54;;;;;;;36.83;21.05;;;27.20;64.90;;;;;;6177858;28;84195;-69
2021/07/16 08:23:55;;;;;;;40.90;21.98;;;27.20;65.00;;;;;;6173302;28;83460;-70
2021/07/16 08:26:55;;;;;;;38.17;20.73;;;27.30;64.90;;;;;;6175406;28;83003;-72
2021/07/16 08:29:56;;;;;;;37.67;20.88;;;27.30;64.90;;;;;;6169501;28;84275;-70
2021/07/16 08:32:56;;;;;;;40.75;23.17;;;27.30;64.90;;;;;;6191812;28;83663;-71
2021/07/16 08:35:57;;;;;;;41.92;24.60;;;27.30;64.70;;;;;;6167895;28;84028;-71
2021/07/16 08:38:57;;;;;;;43.15;24.40;;;27.20;65.10;;;;;;6165785;28;83246;-69
2021/07/16 08:41:58;;;;;;;44.05;22.65;;;27.20;65.20;;;;;;6182130;28;84818;-70
2021/07/16 08:44:59;;;;;;;43.28;22.70;;;27.30;65.30;;;;;;6166026;28;82993;-69
2021/07/16 08:47:59;;;;;;;47.95;27.33;;;27.30;65.30;;;;;;6178690;28;82833;-69
2021/07/16 08:51:00;;;;;;;45.63;25.27;;;27.30;65.80;;;;;;6176850;28;85720;-70
2021/07/16 08:54:01;;;;;;;42.55;23.30;;;27.20;65.70;;;;;;6176938;28;85463;-69
2021/07/16 08:57:01;;;;;;;44.55;24.58;;;27.10;65.70;;;;;;6182943;28;83195;-70
2021/07/16 09:00:02;;;;;;;48.80;26.42;;;27.10;66.40;;;;;;6192087;28;86839;-70
2021/07/16 09:03:02;;;;;;;49.05;26.40;;;27.10;66.10;;;;;;6176865;28;83393;-69
2021/07/16 09:06:04;;;;;;;43.53;26.00;;;27.30;65.90;;;;;;6175632;28;83955;-67
2021/07/16 09:09:05;;;;;;;44.60;25.85;;;27.30;65.80;;;;;;6168503;28;84551;-69
2021/07/16 09:12:05;;;;;;;48.85;27.58;;;27.40;66.70;;;;;;6180246;28;82946;-69
2021/07/16 09:15:06;;;;;;;42.22;26.98;;;27.40;67.00;;;;;;6182411;28;83883;-69
2021/07/16 09:18:06;;;;;;;48.72;27.55;;;27.40;65.90;;;;;;6179118;28;83159;-69
2021/07/16 09:21:07;;;;;;;55.45;27.85;;;27.30;66.00;;;;;;6178679;28;84416;-70
2021/07/16 09:24:08;;;;;;;47.13;27.02;;;27.40;65.90;;;;;;6183168;28;83251;-70
2021/07/16 09:27:08;;;;;;;50.47;27.85;;;27.40;66.40;;;;;;6182820;28;84219;-67
2021/07/16 09:30:09;;;;;;;46.80;28.10;;;27.50;65.60;;;;;;6180115;28;84273;-70
2021/07/16 09:33:10;;;;;;;44.55;26.08;;;27.50;65.50;;;;;;6177774;28;83416;-70
2021/07/16 09:36:12;;;;;;;41.22;26.17;;;27.50;65.40;;;;;;6186365;28;84120;-71
2021/07/16 09:39:13;;;;;;;39.35;25.48;;;27.50;65.20;;;;;;6183242;28;82852;-66
2021/07/16 09:42:14;;;;;;;39.47;25.25;;;27.50;64.90;;;;;;6180738;28;83083;-69
2021/07/16 09:45:15;;;;;;;42.88;27.08;;;27.50;65.80;;;;;;6170948;28;84256;-68
2021/07/16 09:48:16;;;;;;;55.95;28.80;;;27.50;65.10;;;;;;6178101;28;83815;-69
2021/07/16 09:51:16;;;;;;;47.95;27.30;;;27.50;65.50;;;;;;6173836;28;84595;-68
2021/07/16 09:54:17;;;;;;;47.90;25.88;;;27.50;65.80;;;;;;6165369;28;84748;-68
2021/07/16 09:57:17;;;;;;;41.70;25.58;;;27.50;65.50;;;;;;6177872;28;83305;-65
2021/07/16 10:00:18;;;;;;;41.17;24.85;;;27.50;65.30;;;;;;6174772;28;83127;-68
2021/07/16 10:03:18;;;;;;;41.33;24.67;;;27.60;65.10;;;;;;6179535;28;83864;-68
2021/07/16 10:06:19;;;;;;;41.55;24.40;;;27.60;64.90;;;;;;6174453;28;84106;-69
2021/07/16 10:09:19;;;;;;;41.60;25.27;;;27.70;64.90;;;;;;6174432;28;82894;-69
2021/07/16 10:12:20;;;;;;;41.85;24.25;;;27.70;65.00;;;;;;6165692;28;83508;-67
2021/07/16 10:15:21;;;;;;;42.53;25.13;;;27.70;65.30;;;;;;6168950;28;82861;-68
2021/07/16 10:18:21;;;;;;;42.08;25.45;;;27.70;65.50;;;;;;6176610;28;83320;-68
2021/07/16 10:21:22;;;;;;;41.25;24.67;;;27.70;65.60;;;;;;6168056;28;84000;-69
2021/07/16 10:24:22;;;;;;;41.22;25.25;;;27.70;65.20;;;;;;6178410;28;85944;-68
2021/07/16 10:27:23;;;;;;;43.03;25.05;;;27.80;65.30;;;;;;6170345;28;83235;-69
2021/07/16 10:30:26;;;;;;;37.50;24.17;;;27.80;65.50;;;;;;6176421;28;83688;-69
2021/07/16 10:33:26;;;;;;;36.60;22.75;;;27.80;65.30;;;;;;6173285;28;83596;-68
2021/07/16 10:36:27;;;;;;;37.72;24.20;;;27.80;65.40;;;;;;6175690;28;83346;-67
2021/07/16 10:39:27;;;;;;;48.67;30.88;;;27.80;65.40;;;;;;6177471;28;82973;-69
2021/07/16 10:42:29;;;;;;;49.00;30.52;;;27.80;65.40;;;;;;6173605;28;83133;-69
2021/07/16 10:45:30;;;;;;;48.05;29.88;;;27.80;64.80;;;;;;6173812;28;83069;-68
2021/07/16 10:48:35;;;;;;;49.97;28.58;;;27.80;64.70;;;;;;6177412;28;83335;-68
2021/07/16 10:51:36;;;;;;;51.72;29.13;;;27.80;64.00;;;;;;6170228;28;83460;-68
2021/07/16 10:54:37;;;;;;;44.60;28.00;;;27.80;64.30;;;;;;6170289;28;83028;-68
2021/07/16 10:57:38;;;;;;;45.22;27.00;;;27.80;64.00;;;;;;6174261;28;83042;-68
2021/07/16 11:00:38;;;;;;;41.33;25.77;;;27.80;64.30;;;;;;6175930;28;82896;-69
2021/07/16 11:03:39;;;;;;;38.67;26.73;;;27.80;64.10;;;;;;6171613;28;83676;-68
2021/07/16 11:06:39;;;;;;;40.90;26.27;;;27.90;64.20;;;;;;6167667;28;83303;-69
2021/07/16 11:09:42;;;;;;;41.90;26.23;;;27.80;64.00;;;;;;6169179;28;83134;-69
2021/07/16 11:12:43;;;;;;;44.63;26.08;;;27.90;63.90;;;;;;6169483;28;84199;-68
2021/07/16 11:15:43;;;;;;;45.10;25.70;;;27.90;63.80;;;;;;6161296;28;83046;-68
2021/07/16 11:18:44;;;;;;;35.03;22.80;;;27.80;63.90;;;;;;6164164;28;84160;-68
2021/07/16 11:21:47;;;;;;;40.58;23.88;;;27.80;63.90;;;;;;6171068;28;83083;-67
2021/07/16 11:24:48;;;;;;;45.33;24.58;;;27.90;64.40;;;;;;6171639;28;84464;-67
2021/07/16 11:27:48;;;;;;;41.38;25.20;;;27.90;64.70;;;;;;6177056;28;91327;-69
2021/07/16 11:30:49;;;;;;;38.92;24.55;;;27.90;64.80;;;;;;6177127;28;83287;-68
2021/07/16 11:33:49;;;;;;;38.90;24.40;;;28.00;64.60;;;;;;6169806;28;83244;-68
2021/07/16 11:36:50;;;;;;;37.92;24.17;;;28.00;63.80;;;;;;6166831;28;84341;-69
2021/07/16 11:39:50;;;;;;;39.90;25.10;;;28.00;64.00;;;;;;6172325;28;83986;-69
2021/07/16 11:42:51;;;;;;;35.15;23.30;;;28.10;63.40;;;;;;6168879;28;84078;-68
2021/07/16 11:45:51;;;;;;;39.42;24.58;;;28.10;63.70;;;;;;6168623;28;83400;-69
2021/07/16 11:48:52;;;;;;;35.33;22.77;;;28.10;63.70;;;;;;6166386;28;83170;-69
2021/07/16 11:51:52;;;;;;;37.83;23.58;;;28.10;63.70;;;;;;6171402;28;84567;-68
2021/07/16 11:54:54;;;;;;;38.70;24.92;;;28.10;63.70;;;;;;6166604;28;83415;-68
2021/07/16 11:57:54;;;;;;;34.20;22.98;;;28.10;63.00;;;;;;6178078;28;83155;-68
2021/07/16 12:00:55;;;;;;;37.25;23.10;;;28.10;62.50;;;;;;6178037;28;85548;-69
2021/07/16 12:03:55;;;;;;;37.00;23.50;;;28.10;62.40;;;;;;6168866;28;85870;-68
2021/07/16 12:06:56;;;;;;;41.60;24.00;;;28.10;62.20;;;;;;6176100;28;83236;-69
2021/07/16 12:09:56;;;;;;;43.15;24.58;;;28.00;61.90;;;;;;6173515;28;85643;-68
2021/07/16 12:12:57;;;;;;;41.50;24.73;;;28.00;61.80;;;;;;6177440;28;83762;-69
2021/07/16 12:15:57;;;;;;;41.95;24.58;;;28.00;61.90;;;;;;6181161;28;83161;-68
2021/07/16 12:18:57;;;;;;;43.10;27.63;;;28.00;62.30;;;;;;6172359;28;83100;-68
2021/07/16 12:21:58;;;;;;;42.20;25.48;;;28.00;62.90;;;;;;6172522;28;83402;-67
2021/07/16 12:24:58;;;;;;;40.42;26.15;;;28.00;63.10;;;;;;6172691;28;84126;-68
2021/07/16 12:27:59;;;;;;;43.28;26.00;;;27.90;63.40;;;;;;6178515;28;83999;-67
2021/07/16 12:30:59;;;;;;;38.67;25.45;;;27.90;63.40;;;;;;6177911;28;83386;-68
2021/07/16 12:34:01;;;;;;;39.38;24.92;;;27.90;63.50;;;;;;6181654;28;83400;-67
2021/07/16 12:37:01;;;;;;;37.85;26.20;;;27.90;63.50;;;;;;6166956;28;83134;-67
2021/07/16 12:40:02;;;;;;;39.35;24.83;;;27.90;63.40;;;;;;6178956;28;82751;-67
2021/07/16 12:43:02;;;;;;;44.17;27.27;;;27.90;63.30;;;;;;6179254;28;83145;-67
2021/07/16 12:46:03;;;;;;;38.20;24.15;;;27.90;63.30;;;;;;6179038;28;84109;-68
2021/07/16 12:49:03;;;;;;;38.33;23.88;;;27.90;63.40;;;;;;6169767;28;83015;-67
2021/07/16 12:52:04;;;;;;;50.78;25.77;;;27.90;63.40;;;;;;6178710;28;84258;-66
2021/07/16 12:55:04;;;;;;;39.50;25.10;;;27.90;63.50;;;;;;6171126;28;85695;-65
2021/07/16 12:58:05;;;;;;;43.42;25.63;;;27.90;63.50;;;;;;6171813;28;83596;-67
2021/07/16 13:01:05;;;;;;;41.97;25.75;;;27.90;64.00;;;;;;6175658;28;84101;-67
2021/07/16 13:04:06;;;;;;;35.63;24.00;;;27.90;64.30;;;;;;6181071;28;83567;-67
2021/07/16 13:07:06;;;;;;;46.20;24.90;;;27.90;64.50;;;;;;6163599;28;83276;-67
2021/07/16 13:10:07;;;;;;;37.63;23.92;;;27.90;64.80;;;;;;6173668;28;83132;-67
2021/07/16 13:13:07;;;;;;;41.42;24.80;;;27.90;64.50;;;;;;6170342;28;83115;-67
2021/07/16 13:16:08;;;;;;;34.35;24.50;;;27.90;64.70;;;;;;6179535;28;83396;-67
2021/07/16 13:19:08;;;;;;;35.30;22.95;;;27.90;64.50;;;;;;6179025;28;83277;-66
2021/07/16 13:22:09;;;;;;;39.22;23.38;;;28.00;64.30;;;;;;6172625;28;82932;-66
2021/07/16 13:25:09;;;;;;;36.92;24.20;;;27.90;64.20;;;;;;6170881;28;84045;-66
2021/07/16 13:28:10;;;;;;;35.10;23.20;;;28.00;64.10;;;;;;6173247;28;83038;-66
2021/07/16 13:31:10;;;;;;;37.95;24.67;;;28.00;64.00;;;;;;6168023;28;83264;-66
2021/07/16 13:34:11;;;;;;;33.42;23.25;;;28.00;63.90;;;;;;6168515;28;83018;-67
2021/07/16 13:37:11;;;;;;;35.03;22.35;;;28.00;63.50;;;;;;6175445;28;82991;-67
2021/07/16 13:40:12;;;;;;;37.05;22.48;;;28.00;63.50;;;;;;6178347;28;83199;-67
2021/07/16 13:43:12;;;;;;;33.42;21.17;;;27.90;63.50;;;;;;6178487;28;83251;-66
2021/07/16 13:46:13;;;;;;;32.67;21.85;;;27.90;63.70;;;;;;6180053;28;83533;-65
2021/07/16 13:49:13;;;;;;;37.85;22.63;;;27.90;63.30;;;;;;6177638;28;83903;-66
2021/07/16 13:52:14;;;;;;;41.40;22.83;;;28.00;63.50;;;;;;6170959;28;83953;-67
2021/07/16 13:55:14;;;;;;;31.88;20.50;;;28.00;63.60;;;;;;6175001;28;83458;-68
2021/07/16 13:58:15;;;;;;;31.33;21.35;;;28.00;63.60;;;;;;6179783;28;83472;-69
2021/07/16 14:01:15;;;;;;;34.47;22.70;;;28.00;63.60;;;;;;6177775;28;83198;-69
2021/07/16 14:04:15;;;;;;;30.88;22.48;;;28.00;63.50;;;;;;6168395;28;86202;-68
2021/07/16 14:07:17;;;;;;;36.45;22.85;;;28.00;63.70;;;;;;6174413;28;84022;-69
2021/07/16 14:10:17;;;;;;;39.00;23.30;;;28.00;63.80;;;;;;6174016;28;82927;-67
2021/07/16 14:13:17;;;;;;;40.83;23.48;;;28.00;63.70;;;;;;6164365;28;83410;-67
2021/07/16 14:16:18;;;;;;;36.30;22.75;;;28.00;64.10;;;;;;6168010;28;83030;-67
2021/07/16 14:19:19;;;;;;;40.80;24.50;;;28.00;63.60;;;;;;6164356;28;83634;-67
2021/07/16 14:22:19;;;;;;;36.55;21.92;;;28.00;64.20;;;;;;6164861;28;83234;-67
2021/07/16 14:25:20;;;;;;;30.73;22.73;;;28.00;64.50;;;;;;6168054;28;83331;-67
2021/07/16 14:28:21;;;;;;;35.47;23.33;;;28.10;64.00;;;;;;6164945;28;84155;-68
2021/07/16 14:31:21;;;;;;;34.05;23.52;;;28.10;64.70;;;;;;6162618;28;84062;-67
2021/07/16 14:34:22;;;;;;;39.15;22.90;;;28.10;64.30;;;;;;6166182;28;83336;-67
2021/07/16 14:37:22;;;;;;;33.88;22.08;;;28.10;64.00;;;;;;6166637;28;83017;-67
2021/07/16 14:40:22;;;;;;;35.92;23.23;;;28.10;64.40;;;;;;6164901;28;83780;-70
2021/07/16 14:43:23;;;;;;;33.10;21.80;;;28.10;62.20;;;;;;6168253;28;82810;-66
2021/07/16 14:46:24;;;;;;;31.80;20.38;;;28.10;63.00;;;;;;6166171;28;83474;-66
2021/07/16 14:49:25;;;;;;;32.70;21.00;;;28.10;63.30;;;;;;6163576;28;83485;-66
2021/07/16 14:52:26;;;;;;;29.20;20.05;;;28.10;62.80;;;;;;6164520;28;83416;-68
2021/07/16 14:55:27;;;;;;;35.10;22.63;;;28.10;62.90;;;;;;6164930;28;83280;-69
2021/07/16 14:58:28;;;;;;;26.88;19.52;;;28.10;63.20;;;;;;6162308;28;84295;-67
2021/07/16 15:01:28;;;;;;;30.95;19.70;;;28.10;62.90;;;;;;6163710;28;82776;-67
2021/07/16 15:04:29;;;;;;;31.05;20.10;;;28.10;62.80;;;;;;6163356;28;83261;-66
2021/07/16 15:07:29;;;;;;;32.88;19.90;;;28.10;62.50;;;;;;6169220;28;85304;-67
2021/07/16 15:10:30;;;;;;;27.92;20.38;;;28.10;62.30;;;;;;6167689;28;83195;-68
2021/07/16 15:13:30;;;;;;;27.98;17.70;;;28.10;62.60;;;;;;6166630;28;83542;-66
2021/07/16 15:16:31;;;;;;;25.10;18.25;;;28.10;62.30;;;;;;6169136;28;83024;-67